Home > Products > Valid Products > TAF

000
FTUS42 KKEY 311700
TAFEYW
TAF
KEYW 311731Z 3118/0118 30011KT P6SM SCT028
     FM010000 34012KT P6SM FEW030
     FM011500 34013G21KT P6SM FEW035=



000
FTUS42 KKEY 311500 AAB
TAFEYW
TAF AMD
KEYW 311509Z 3115/0112 29009KT P6SM SCT026
     FM312100 34011KT P6SM FEW030
     FM010900 34011G19KT P6SM FEW035=



000
FTUS42 KKEY 311300 AAA
TAFEYW
TAF AMD
KEYW 311331Z 3114/0112 28008KT P6SM VCSH SCT030
     FM312100 34011KT P6SM FEW035
     FM010900 34011G19KT P6SM FEW035=



000
FTUS42 KKEY 311100
TAFEYW
TAF
KEYW 311132Z 3112/0112 30005KT P6SM FEW030
     FM311500 31011KT P6SM SCT030
     FM010000 34011KT P6SM FEW035
     FM010900 34011G19KT P6SM FEW035=



000
FTUS42 KKEY 311100
TAFEYW
TAF
KEYW 311120Z 3112/0112 VRB03KT P6SM FEW025
     FM311400 33013KT P6SM SCT025 SCT150=



000
FTUS42 KKEY 310500
TAFEYW
TAF
KEYW 310536Z 3106/0106 30003KT P6SM FEW025
     FM311400 33013KT P6SM SCT025 SCT150=



000
FTUS42 KKEY 302300 RRA
TAFEYW
TAF
KEYW 302350Z 3100/3124 30006KT P6SM FEW025 SCT200
     FM311500 33013KT P6SM SCT025 SCT150=



000
FTUS42 KKEY 301700
TAFEYW
TAF
KEYW 301733Z 3018/3118 14006KT P6SM FEW025
     FM310000 34006KT P6SM FEW025 SCT200=



000
FTUS42 KKEY 301700
TAFEYW
TAF
KEYW 301733Z 3018/3118 14006KT P6SM FEW025
     FM310000 34006KT P6SM FEW025 SCT200=



000
FTUS42 KKEY 301400 AAA
TAFEYW
TAF AMD
KEYW 301457Z 3015/3112 11006KT P6SM FEW025
     FM310000 VRB03KT P6SM SCT200=



000
FTUS42 KKEY 301100
TAFEYW
TAF
KEYW 301129Z 3012/3112 04004KT P6SM FEW025 BKN080
     FM301500 06005KT P6SM FEW028=



000
FTUS42 KKEY 300800 AAA
TAFEYW
TAF AMD
KEYW 300846Z 3009/3106 VRB03KT P6SM FEW025
     FM301400 05005KT P6SM FEW025=



000
FTUS42 KKEY 300500
TAFEYW
TAF
KEYW 300540Z 3006/3106 VRB03KT P6SM FEW025
     FM301400 05005KT P6SM FEW025=



000
FTUS42 KKEY 292300
TAFEYW
TAF
KEYW 292332Z 3000/3024 10006KT P6SM FEW025 SCT070
     FM300800 05005KT P6SM FEW025=



000
FTUS42 KKEY 291700
TAFEYW
TAF
KEYW 291736Z 2918/3018 15005KT P6SM FEW030 BKN080
     FM292000 10006KT P6SM FEW025 SCT060
     FM300800 05006KT P6SM SCT040=



000
FTUS42 KKEY 291500 AAB
TAFEYW
TAF AMD
KEYW 291502Z 2915/3012 10007KT P6SM FEW030 BKN080
     FM291600 09005KT P6SM FEW030 SCT080=



000
FTUS42 KKEY 291300 AAA
TAFEYW
TAF AMD
KEYW 291330Z 2914/3012 10005KT P6SM FEW030 BKN045
      TEMPO 2914/2916 5SM SHRA BKN025 OVC040
     FM291600 09005KT P6SM FEW030=



000
FTUS42 KKEY 291100
TAFEYW
TAF
KEYW 291137Z 2912/3012 07005KT P6SM VCSH SCT030 BKN045
      TEMPO 2912/2913 5SM SHRA BKN025 OVC040
     FM291300 09005KT P6SM FEW030=



000
FTUS42 KKEY 291100 AAA
TAFEYW
TAF AMD
KEYW 291127Z 2911/3006 07005KT P6SM VCSH SCT030 BKN045
      TEMPO 2911/2913 5SM SHRA BKN025 OVC040
     FM291300 09005KT P6SM FEW030=



000
FTUS42 KKEY 291000 AAD
TAFEYW
TAF AMD
KEYW 291023Z 2910/3006 07005KT P6SM VCSH SCT030 BKN045
     FM291300 09005KT P6SM FEW030=



000
FTUS42 KKEY 291000 AAD
TAFEYW
TAF AMD
KEYW 291023Z 2910/3006 07005KT P6SM VCSH SCT030 BKN045
     FM291300 09005KT P6SM FEW030=



000
FTUS42 KKEY 290800 AAC
TAFEYW
TAF AMD
KEYW 290848Z 2909/3006 06004KT P6SM VCSH FEW030 BKN060
     FM291000 08005KT P6SM FEW030=



000
FTUS42 KKEY 290800 AAB
TAFEYW
TAF AMD
KEYW 290813Z 2908/3006 07008KT P6SM VCSH FEW030 BKN060
     FM291000 08005KT P6SM FEW030=



000
FTUS42 KKEY 290500 AAA
TAFEYW
TAF AMD
KEYW 290548Z 2906/2924 07008KT P6SM FEW030 BKN060=



000
FTUS42 KKEY 290100 AAA
TAFEYW
TAF AMD
KEYW 290106Z 2901/2924 07008KT P6SM FEW030 BKN060
     FM290600 08007KT P6SM SCT030=



000
FTUS42 KKEY 282300
TAFEYW
TAF
KEYW 282320Z 2900/2924 09012G20KT P6SM FEW025 SCT060
     FM291300 10011KT P6SM SCT030 SCT070=



    US Dept of Commerce
    National Oceanic and Atmospheric Administration
    National Weather Service
    1325 East West Highway
    Silver Spring, MD 20910
    Page Author: NWS Internet Services Team
Disclaimer
Information Quality
Credits
Glossary
Privacy Policy
Freedom of Information Act (FOIA)
About Us
Career Opportunities